सभी
Edenhope Airport (Edenhope Victoria) YEDE मौसम
There is no TAF data available at YEDE. Showing TAF data for YNRC (30 mi W).
NAC Terminal Area Forecast (no data for YEDE)
| Date | Time (ACST) | Flight Rules | Wind Dir. | Speed | Type | Height AGL (ft) | Visibility | Remarks | ||||||
|---|---|---|---|---|---|---|---|---|---|---|---|---|---|---|
| 03-मई | 16:30 | VFR | 320° | 12 kt | Few | 4,500 | >= 6 miles | |||||||
| 03-मई | 15:30 | VFR | 320° | 12 kt | Few | 4,500 | >= 6 miles | |||||||
There is no METAR data available at YEDE. Showing METAR data for YNRC (30 mi W).
Recent NAC METAR history (no data for YEDE)
| Date | Time (ACST) | Flight Rules | Wind Dir. | Speed | Type | Height AGL (ft) | Visibility | Temp (°C) | Temp (°F) | Dew Point (°C) | Dew Point (°F) | Rel. Humid. | Pressure | Density Altitude | Remarks |
|---|---|---|---|---|---|---|---|---|---|---|---|---|---|---|---|
| 03-मई | 15:30 | n/a | 330° | 14 kt | Missing | 16° | 60° | 10° | 50° | 68% | 1008 mb | 443 ft | |||
| 03-मई | 14:30 | n/a | 340° | 17 kt | Missing | 17° | 62° | 9° | 48° | 59% | 1008 mb | 563 ft | Wind gusting to 27 KT | ||
| 03-मई | 13:34 | n/a | 340° | 17 kt | Missing | 17° | 62° | 8° | 46° | 55% | 1008 mb | 563 ft | Wind gusting to 27 KT | ||
| 03-मई | 12:30 | n/a | 330° | 16 kt | Missing | 17° | 62° | 9° | 48° | 59% | 1008 mb | 563 ft | |||
| 03-मई | 11:30 | n/a | 330° | 17 kt | Missing | 16° | 60° | 9° | 48° | 63% | 1009 mb | 413 ft | |||
| 03-मई | 10:30 | n/a | 330° | 16 kt | Missing | 16° | 60° | 10° | 50° | 68% | 1009 mb | 413 ft | |||
| 03-मई | 09:30 | n/a | 340° | 15 kt | Missing | 15° | 59° | 11° | 51° | 77% | 1009 mb | 293 ft | |||
| 03-मई | 08:30 | n/a | 340° | 14 kt | Missing | 14° | 57° | 11° | 51° | 82% | 1009 mb | 173 ft | |||
| 03-मई | 07:30 | n/a | 350° | 9 kt | Missing | 12° | 53° | 11° | 51° | 94% | 1009 mb | -67 ft | |||
| 03-मई | 06:30 | n/a | 360° | 11 kt | Missing | 12° | 53° | 11° | 51° | 94% | 1008 mb | -37 ft | |||
| 03-मई | 05:30 | n/a | 360° | 7 kt | Missing | 12° | 53° | 11° | 51° | 94% | 1008 mb | -37 ft | |||
| 03-मई | 04:30 | n/a | 360° | 7 kt | Missing | 13° | 55° | 11° | 51° | 88% | 1008 mb | 83 ft | |||
| 03-मई | 03:30 | n/a | 360° | 7 kt | Missing | 13° | 55° | 12° | 53° | 94% | 1008 mb | 83 ft | |||
| 03-मई | 02:30 | n/a | 360° | 8 kt | Missing | 13° | 55° | 12° | 53° | 94% | 1008 mb | 83 ft | |||
| 03-मई | 01:30 | n/a | 10° | 8 kt | Missing | 14° | 57° | 13° | 55° | 94% | 1009 mb | 173 ft | |||
| 03-मई | 00:30 | n/a | 360° | 6 kt | Missing | 14° | 57° | 13° | 55° | 94% | 1009 mb | 173 ft | |||
| 02-मई | 23:30 | n/a | 360° | 7 kt | Missing | 14° | 57° | 13° | 55° | 94% | 1009 mb | 173 ft | |||
| 02-मई | 22:30 | n/a | 350° | 7 kt | Missing | 15° | 59° | 15° | 59° | 100% | 1010 mb | 264 ft | |||
| 02-मई | 21:30 | n/a | 330° | 6 kt | Missing | 15° | 59° | 15° | 59° | 100% | 1010 mb | 264 ft | |||
| 02-मई | 20:30 | n/a | 10° | 9 kt | Missing | 17° | 62° | 16° | 60° | 94% | 1009 mb | 533 ft | |||
| 02-मई | 19:30 | n/a | 10° | 10 kt | Missing | 17° | 62° | 16° | 60° | 94% | 1009 mb | 533 ft | |||
| 02-मई | 18:30 | n/a | 10° | 13 kt | Missing | 17° | 62° | 16° | 60° | 94% | 1009 mb | 533 ft | |||
| 02-मई | 17:30 | n/a | 10° | 12 kt | Missing | 17° | 62° | 16° | 60° | 94% | 1009 mb | 533 ft | |||
| 02-मई | 16:30 | n/a | 30° | 11 kt | Missing | 17° | 62° | 16° | 60° | 94% | 1008 mb | 563 ft |
लॉगिन
| Your browser is unsupported. अपना ब्राऊजर अपग्रेड करें |
